Time;durP1;ratioP1;P1;durP2;ratioP2;P2;SDS_P1;SDS_P2;PMS_P1;PMS_P2;Temp;Humidity;BMP_temperature;BMP_pressure;BME280_temperature;BME280_humidity;BME280_pressure;Samples;Min_cycle;Max_cycle;Signal;HPM_P1;HPM_P2
2022/03/10 00:01:31;;;;;;;41.35;26.13;;;;;;;2.74;61.48;102269.97;5022588;28;20045;-72
2022/03/10 00:03:56;;;;;;;39.55;26.55;;;;;;;2.67;61.33;102263.41;5023633;28;20420;-71
2022/03/10 00:06:22;;;;;;;42.90;26.23;;;;;;;2.60;60.58;102274.81;5024415;28;20077;-72
2022/03/10 00:08:47;;;;;;;39.53;26.63;;;;;;;2.55;61.50;102273.56;5023895;28;20033;-71
2022/03/10 00:11:12;;;;;;;46.00;27.65;;;;;;;2.50;61.69;102270.41;5023458;28;20033;-71
2022/03/10 00:13:38;;;;;;;42.95;26.02;;;;;;;2.46;61.37;102285.25;5024750;28;20032;-72
2022/03/10 00:16:03;;;;;;;41.45;26.10;;;;;;;2.41;61.54;102287.53;5022796;28;20038;-71
2022/03/10 00:18:28;;;;;;;40.90;28.05;;;;;;;2.38;61.22;102285.94;5023742;28;20045;-71
2022/03/10 00:20:54;;;;;;;42.08;27.42;;;;;;;2.30;62.08;102285.81;5023410;28;20095;-71
2022/03/10 00:23:19;;;;;;;42.78;26.75;;;;;;;2.26;62.08;102282.50;5023746;28;20336;-71
2022/03/10 00:25:44;;;;;;;38.80;25.92;;;;;;;2.23;62.04;102276.50;5024232;28;20061;-72
2022/03/10 00:28:10;;;;;;;41.60;26.08;;;;;;;2.20;62.47;102276.81;5022898;28;20099;-71
2022/03/10 00:30:35;;;;;;;47.30;28.40;;;;;;;2.21;62.12;102278.53;5023308;28;20108;-72
2022/03/10 00:33:00;;;;;;;38.85;25.48;;;;;;;2.20;62.85;102282.22;5023581;28;20443;-71
2022/03/10 00:35:26;;;;;;;41.75;26.58;;;;;;;2.17;62.65;102285.22;5023902;28;20041;-71
2022/03/10 00:37:52;;;;;;;40.60;26.50;;;;;;;2.13;62.60;102281.06;5023669;28;20112;-72
2022/03/10 00:40:19;;;;;;;39.00;26.85;;;;;;;2.10;63.05;102286.78;5023094;28;20083;-71
2022/03/10 00:42:44;;;;;;;35.47;24.58;;;;;;;2.08;63.74;102284.22;5022832;28;20025;-71
2022/03/10 00:45:11;;;;;;;42.28;26.13;;;;;;;2.04;64.01;102286.34;5021935;28;20037;-70
2022/03/10 00:47:37;;;;;;;38.55;25.90;;;;;;;1.99;64.17;102285.91;5023294;28;20056;-71
2022/03/10 00:50:03;;;;;;;39.55;26.42;;;;;;;1.99;63.90;102287.75;5023870;28;20076;-71
2022/03/10 00:52:29;;;;;;;41.10;26.45;;;;;;;1.97;63.90;102285.16;5022702;28;20345;-71
2022/03/10 00:54:54;;;;;;;43.28;26.33;;;;;;;1.92;63.99;102287.44;5023074;28;20573;-71
2022/03/10 00:57:20;;;;;;;40.20;25.92;;;;;;;1.89;64.36;102289.59;5023035;28;20516;-71
2022/03/10 00:59:45;;;;;;;40.17;26.25;;;;;;;1.87;65.00;102289.72;5020333;28;20021;-71
2022/03/10 01:02:10;;;;;;;40.30;26.45;;;;;;;1.86;64.65;102290.72;5006970;28;20042;-71
2022/03/10 01:04:36;;;;;;;42.15;25.88;;;;;;;1.83;65.47;102287.44;5010266;28;20017;-71
2022/03/10 01:07:01;;;;;;;41.72;26.40;;;;;;;1.83;64.55;102293.72;5022990;28;20523;-71
2022/03/10 01:09:26;;;;;;;39.10;26.10;;;;;;;1.83;64.64;102290.16;5022294;28;20381;-71
2022/03/10 01:11:52;;;;;;;39.80;27.05;;;;;;;1.81;64.91;102282.13;5022128;28;20057;-71
2022/03/10 01:14:17;;;;;;;40.88;27.05;;;;;;;1.78;65.72;102287.84;5022236;28;20472;-71
2022/03/10 01:16:43;;;;;;;41.38;26.10;;;;;;;1.74;65.59;102281.84;5020867;28;20221;-71
2022/03/10 01:19:08;;;;;;;43.53;26.85;;;;;;;1.71;65.56;102292.94;5022304;28;20037;-71
2022/03/10 01:21:34;;;;;;;41.05;26.38;;;;;;;1.68;65.36;102293.25;5022957;28;20037;-71
2022/03/10 01:23:59;;;;;;;40.95;27.02;;;;;;;1.64;66.14;102291.78;5023007;28;20025;-71
2022/03/10 01:26:24;;;;;;;42.40;26.88;;;;;;;1.62;65.68;102291.06;5022126;28;20492;-71
2022/03/10 01:28:50;;;;;;;39.25;26.75;;;;;;;1.55;66.25;102281.78;5022517;28;20158;-71
2022/03/10 01:31:16;;;;;;;41.08;26.67;;;;;;;1.58;66.55;102291.50;5021437;28;20141;-71
2022/03/10 01:33:41;;;;;;;46.45;26.70;;;;;;;1.54;66.45;102285.47;5022188;28;20261;-71
2022/03/10 01:36:06;;;;;;;41.28;26.55;;;;;;;1.52;65.94;102285.63;5022578;28;20069;-71
2022/03/10 01:38:31;;;;;;;42.90;26.17;;;;;;;1.50;66.74;102279.47;5022585;28;20037;-71
2022/03/10 01:40:57;;;;;;;42.83;28.20;;;;;;;1.48;66.66;102278.75;5021970;28;20408;-71
2022/03/10 01:43:22;;;;;;;38.60;26.02;;;;;;;1.47;66.83;102277.06;5022218;28;20483;-71
2022/03/10 01:45:47;;;;;;;41.83;27.50;;;;;;;1.46;66.11;102283.44;5020701;28;20079;-71
2022/03/10 01:48:12;;;;;;;43.33;26.15;;;;;;;1.43;66.19;102277.47;5021814;28;20049;-71
2022/03/10 01:50:38;;;;;;;41.58;25.17;;;;;;;1.40;66.30;102284.00;5022872;28;20029;-69
2022/03/10 01:53:04;;;;;;;38.92;25.17;;;;;;;1.38;67.06;102280.56;5021454;28;20071;-71
2022/03/10 01:55:30;;;;;;;41.40;24.50;;;;;;;1.40;67.19;102284.00;5022122;28;20456;-71
2022/03/10 01:57:55;;;;;;;40.75;26.23;;;;;;;1.43;66.97;102277.47;5022339;28;20038;-71
2022/03/10 02:00:21;;;;;;;43.10;25.90;;;;;;;1.45;66.90;102276.31;5020989;28;20026;-72
2022/03/10 02:02:46;;;;;;;41.70;24.80;;;;;;;1.48;67.04;102278.75;5021762;28;20029;-72
2022/03/10 02:05:11;;;;;;;40.58;24.13;;;;;;;1.50;66.90;102276.75;5021633;28;20520;-71
2022/03/10 02:10:27;;;;;;;43.22;24.85;;;;;;;1.52;66.83;102271.19;5022384;28;20396;-71
2022/03/10 02:12:53;;;;;;;38.70;25.73;;;;;;;1.48;67.08;102270.63;5021931;28;20033;-71
2022/03/10 02:18:09;;;;;;;37.00;24.10;;;;;;;1.38;67.94;102277.88;5022584;28;20091;-71
2022/03/10 02:20:35;;;;;;;34.78;23.15;;;;;;;1.35;68.33;102272.72;5021824;28;20044;-72
2022/03/10 02:23:01;;;;;;;38.35;23.92;;;;;;;1.33;68.28;102272.00;5021261;28;20041;-71
2022/03/10 02:25:27;;;;;;;37.90;24.55;;;;;;;1.29;68.11;102270.56;5021267;28;20186;-71
2022/03/10 02:27:55;;;;;;;40.50;25.40;;;;;;;1.24;68.34;102272.81;5021466;28;20029;-71
2022/03/10 02:30:22;;;;;;;43.70;25.25;;;;;;;1.21;68.60;102267.66;5021528;28;20091;-71
2022/03/10 02:32:48;;;;;;;42.45;25.88;;;;;;;1.19;68.31;102275.06;5020989;28;20530;-72
2022/03/10 02:35:14;;;;;;;40.88;24.73;;;;;;;1.19;68.55;102275.06;5021433;28;20104;-72
2022/03/10 02:37:40;;;;;;;41.42;24.73;;;;;;;1.23;68.25;102268.41;5021336;28;20041;-72
2022/03/10 02:40:06;;;;;;;38.90;25.70;;;;;;;1.27;68.17;102269.84;5021708;28;20030;-72
2022/03/10 02:42:32;;;;;;;41.22;24.83;;;;;;;1.26;68.14;102266.25;5021177;28;20424;-72
2022/03/10 02:44:57;;;;;;;43.35;25.77;;;;;;;1.28;68.41;102275.09;5020913;28;20017;-72
2022/03/10 02:47:23;;;;;;;40.55;25.00;;;;;;;1.22;68.60;102270.25;5020459;28;20208;-71
2022/03/10 02:49:48;;;;;;;40.00;25.60;;;;;;;1.19;68.65;102275.06;5021574;28;20384;-72
2022/03/10 02:52:13;;;;;;;41.47;25.05;;;;;;;1.20;68.56;102272.22;5021291;28;20539;-72
2022/03/10 02:54:38;;;;;;;37.75;24.52;;;;;;;1.22;68.13;102270.25;5020272;28;20025;-70
2022/03/10 02:57:04;;;;;;;37.35;23.40;;;;;;;1.19;67.89;102273.22;5022383;28;20396;-71
2022/03/10 02:59:30;;;;;;;40.15;24.88;;;;;;;1.14;68.77;102270.03;5028754;22;20073;-72
2022/03/10 03:01:58;;;;;;;41.45;24.45;;;;;;;1.10;68.32;102275.84;5023529;28;20336;-70
2022/03/10 03:04:25;;;;;;;41.67;25.38;;;;;;;1.04;68.75;102272.69;5027336;28;20064;-72
2022/03/10 03:06:50;;;;;;;40.33;25.35;;;;;;;1.03;68.80;102273.69;5025980;28;20024;-72
2022/03/10 03:09:15;;;;;;;41.60;25.95;;;;;;;1.04;69.08;102274.53;5036072;28;20402;-71
2022/03/10 03:11:40;;;;;;;40.28;25.40;;;;;;;1.03;69.28;102275.53;5026213;28;20964;-73
2022/03/10 03:14:06;;;;;;;40.35;25.15;;;;;;;1.02;69.20;102274.69;5025903;28;20697;-72
2022/03/10 03:16:31;;;;;;;41.47;25.58;;;;;;;0.97;69.24;102281.50;5024548;28;20036;-72
2022/03/10 03:18:57;;;;;;;36.55;24.35;;;;;;;0.96;69.47;102275.22;5032808;28;20086;-72
2022/03/10 03:21:23;;;;;;;42.80;25.98;;;;;;;0.96;69.19;102280.63;5045359;28;20075;-72
2022/03/10 03:23:49;;;;;;;42.42;25.50;;;;;;;0.93;69.57;102289.00;5045896;28;20040;-72
2022/03/10 03:26:15;;;;;;;42.55;26.38;;;;;;;0.91;69.91;102288.28;5035676;28;20112;-72
2022/03/10 03:28:41;;;;;;;41.15;25.33;;;;;;;0.91;69.51;102290.13;5027057;28;20120;-73
2022/03/10 03:31:07;;;;;;;38.85;23.85;;;;;;;0.88;70.07;102288.53;5025756;28;20057;-71
2022/03/10 03:33:32;;;;;;;38.45;24.25;;;;;;;0.86;70.50;102290.50;5041446;28;20068;-72
2022/03/10 03:35:58;;;;;;;39.63;24.23;;;;;;;0.84;70.78;102297.91;5041735;28;20033;-71
2022/03/10 03:38:23;;;;;;;41.35;24.77;;;;;;;0.82;70.29;102299.03;5028480;28;20344;-72
2022/03/10 03:40:48;;;;;;;40.05;24.77;;;;;;;0.77;70.59;102292.19;5045631;28;20043;-72
2022/03/10 03:43:14;;;;;;;42.63;26.20;;;;;;;0.73;70.90;102295.28;5044173;28;20049;-72
2022/03/10 03:45:39;;;;;;;38.75;23.50;;;;;;;0.70;70.85;102285.56;5044119;28;20032;-72
2022/03/10 03:48:04;;;;;;;42.78;25.95;;;;;;;0.65;71.30;102282.38;5045112;28;20032;-71
2022/03/10 03:50:30;;;;;;;37.85;23.42;;;;;;;0.66;71.33;102288.66;5024922;28;20025;-72
2022/03/10 03:52:55;;;;;;;40.65;24.67;;;;;;;0.62;71.51;102296.19;5025515;28;20034;-72
2022/03/10 03:55:20;;;;;;;39.97;25.38;;;;;;;0.61;71.39;102301.69;5024923;28;20440;-72
2022/03/10 03:57:45;;;;;;;41.20;25.05;;;;;;;0.56;71.24;102307.53;5026173;28;20033;-71
2022/03/10 04:00:11;;;;;;;40.58;25.38;;;;;;;0.53;72.09;102305.06;5024404;28;20045;-72
2022/03/10 04:02:36;;;;;;;43.45;26.10;;;;;;;0.50;72.15;102308.03;5044995;28;20457;-71
2022/03/10 04:05:03;;;;;;;40.38;25.25;;;;;;;0.48;72.64;102305.44;5031296;28;20069;-72
2022/03/10 04:07:28;;;;;;;43.63;25.75;;;;;;;0.50;72.42;102313.44;5023681;28;20646;-72
2022/03/10 04:09:54;;;;;;;42.20;24.77;;;;;;;0.48;72.02;102313.56;5041029;28;20113;-72
2022/03/10 04:12:19;;;;;;;39.10;24.35;;;;;;;0.48;72.01;102316.25;5044868;28;20487;-72
2022/03/10 04:14:44;;;;;;;41.60;26.60;;;;;;;0.47;71.99;102319.97;5042234;28;20078;-72
2022/03/10 04:17:09;;;;;;;45.92;25.83;;;;;;;0.42;72.29;102311.38;5043033;28;20032;-72
2022/03/10 04:19:35;;;;;;;41.65;25.92;;;;;;;0.39;72.37;102316.19;5044604;28;20039;-72
2022/03/10 04:22:00;;;;;;;40.38;24.52;;;;;;;0.38;72.68;102311.75;5044690;28;20037;-71
2022/03/10 04:24:26;;;;;;;43.83;26.77;;;;;;;0.35;73.13;102312.88;5031241;28;20022;-72
2022/03/10 04:26:51;;;;;;;42.03;24.92;;;;;;;0.33;72.76;102308.59;5024685;28;20044;-71
2022/03/10 04:29:17;;;;;;;43.65;26.63;;;;;;;0.28;72.81;102310.81;5041876;28;20451;-72
2022/03/10 04:31:43;;;;;;;42.55;25.10;;;;;;;0.24;73.35;102315.59;5024351;28;20623;-72
2022/03/10 04:34:09;;;;;;;42.22;25.67;;;;;;;0.23;73.29;102313.91;5023866;28;20099;-72
2022/03/10 04:36:34;;;;;;;41.03;25.50;;;;;;;0.18;73.34;102308.03;5024499;28;20033;-72
2022/03/10 04:39:00;;;;;;;39.60;25.10;;;;;;;0.15;73.55;102313.66;5023545;28;20037;-71
2022/03/10 04:41:25;;;;;;;41.08;25.38;;;;;;;0.11;73.61;102314.94;5038068;28;20491;-71
2022/03/10 04:43:51;;;;;;;42.55;25.45;;;;;;;0.10;73.61;102319.47;5039334;28;20112;-72
2022/03/10 04:46:16;;;;;;;41.90;25.23;;;;;;;0.10;73.67;102314.06;5042788;28;20082;-72
2022/03/10 04:48:42;;;;;;;42.33;25.75;;;;;;;0.08;73.42;102313.31;5041772;28;20039;-72
2022/03/10 04:51:08;;;;;;;41.72;25.35;;;;;;;0.07;73.97;102313.47;5032367;28;20030;-72
2022/03/10 04:53:33;;;;;;;45.70;26.30;;;;;;;0.03;73.74;102317.38;5025092;28;20538;-72
2022/03/10 04:55:58;;;;;;;41.22;26.02;;;;;;;0.01;74.01;102313.97;5043131;28;20102;-72
2022/03/10 04:58:24;;;;;;;42.65;25.67;;;;;;;0.02;74.02;102318.38;5042771;28;20440;-72
2022/03/10 05:00:49;;;;;;;40.10;25.17;;;;;;;-0.01;73.82;102311.38;5036092;28;20079;-72
2022/03/10 05:03:15;;;;;;;42.28;24.83;;;;;;;-0.06;74.14;102322.53;5041338;28;20387;-72
2022/03/10 05:05:40;;;;;;;47.28;26.02;;;;;;;-0.04;73.89;102317.03;5033467;28;20071;-72
2022/03/10 05:08:06;;;;;;;39.28;24.92;;;;;;;-0.05;74.18;102321.59;5041532;28;20095;-72
2022/03/10 05:10:31;;;;;;;43.65;25.52;;;;;;;-0.08;73.96;102318.28;5035431;28;20120;-72
2022/03/10 05:13:00;;;;;;;40.58;25.40;;;;;;;-0.10;74.25;102321.09;5023321;28;20022;-72
2022/03/10 05:15:26;;;;;;;41.25;25.35;;;;;;;-0.13;74.21;102329.44;5021393;28;20053;-72
2022/03/10 05:17:52;;;;;;;43.00;24.70;;;;;;;-0.13;74.16;102324.03;5022465;28;20029;-72
2022/03/10 05:20:19;;;;;;;43.53;25.02;;;;;;;-0.13;74.24;102317.78;5025883;28;20079;-71
2022/03/10 05:22:49;;;;;;;44.28;25.42;;;;;;;-0.10;74.05;102318.41;5022875;28;20025;-71
2022/03/10 05:25:16;;;;;;;42.60;25.38;;;;;;;-0.07;73.82;102322.69;5022777;28;20056;-72
2022/03/10 05:27:43;;;;;;;38.92;24.17;;;;;;;-0.06;73.62;102327.09;5024111;28;20021;-73
2022/03/10 05:30:09;;;;;;;42.03;24.20;;;;;;;-0.06;73.63;102329.78;5027735;28;20056;-72
2022/03/10 05:32:35;;;;;;;42.47;25.50;;;;;;;-0.08;73.60;102327.22;5041912;28;20021;-72
2022/03/10 05:35:01;;;;;;;41.15;23.52;;;;;;;-0.12;73.76;102327.59;5042775;28;20383;-72
2022/03/10 05:37:26;;;;;;;43.28;25.63;;;;;;;-0.16;74.17;102332.38;5040694;28;20116;-72
2022/03/10 05:39:52;;;;;;;45.17;25.85;;;;;;;-0.17;74.20;102327.97;5032446;28;20029;-72
2022/03/10 05:42:17;;;;;;;43.70;24.63;;;;;;;-0.15;74.01;102323.31;5022342;28;20037;-72
2022/03/10 05:44:42;;;;;;;42.42;25.55;;;;;;;-0.11;74.03;102327.47;5023146;28;20060;-72
2022/03/10 05:47:09;;;;;;;43.90;24.98;;;;;;;-0.08;73.88;102316.44;5042361;28;20514;-71
2022/03/10 05:49:35;;;;;;;44.92;25.90;;;;;;;-0.05;73.51;102320.69;5036183;28;20576;-73
2022/03/10 05:52:00;;;;;;;41.97;26.25;;;;;;;-0.03;73.50;102324.16;5026947;28;20490;-71
2022/03/10 05:54:25;;;;;;;43.70;24.50;;;;;;;-0.04;73.50;102317.03;5041946;28;20112;-72
2022/03/10 05:56:50;;;;;;;45.33;25.60;;;;;;;-0.05;73.31;102318.00;5040278;28;20091;-72
2022/03/10 05:59:16;;;;;;;41.85;24.80;;;;;;;-0.04;73.32;102319.75;5040999;28;20049;-72
2022/03/10 06:01:41;;;;;;;40.70;25.52;;;;;;;-0.03;73.13;102319.59;5040483;28;20029;-71
2022/03/10 06:04:06;;;;;;;42.20;26.45;;;;;;;-0.01;73.42;102323.03;5038111;28;20052;-72
2022/03/10 06:06:31;;;;;;;46.70;25.80;;;;;;;-0.02;72.92;102315.91;5033054;28;20510;-72
2022/03/10 06:08:57;;;;;;;42.13;24.95;;;;;;;-0.04;72.92;102317.91;5040600;28;20094;-71
2022/03/10 06:11:22;;;;;;;42.83;25.25;;;;;;;-0.06;73.12;102316.28;5042172;28;20036;-72
2022/03/10 06:13:48;;;;;;;43.60;26.50;;;;;;;-0.06;72.79;102316.28;5032109;28;20296;-72
2022/03/10 06:16:13;;;;;;;43.28;26.38;;;;;;;-0.08;72.80;102320.97;5031087;28;20029;-72
2022/03/10 06:18:39;;;;;;;43.00;24.67;;;;;;;-0.08;72.78;102316.44;5024018;28;20365;-70
2022/03/10 06:21:04;;;;;;;43.97;24.70;;;;;;;-0.05;72.76;102321.59;5023583;28;20056;-72
2022/03/10 06:23:29;;;;;;;40.45;25.70;;;;;;;-0.02;72.90;102324.03;5021979;28;20507;-73
2022/03/10 06:25:55;;;;;;;45.60;26.00;;;;;;;0.04;72.67;102329.91;5022200;28;20071;-73
2022/03/10 06:28:20;;;;;;;40.63;26.17;;;;;;;0.11;72.49;102328.44;5021928;28;20029;-71
2022/03/10 06:30:46;;;;;;;42.83;25.75;;;;;;;0.16;72.32;102324.38;5029778;28;20025;-74
2022/03/10 06:33:11;;;;;;;44.03;25.58;;;;;;;0.20;72.11;102324.94;5041551;28;20464;-73
2022/03/10 06:35:36;;;;;;;41.70;26.02;;;;;;;0.24;72.18;102334.53;5026478;28;20049;-73
2022/03/10 06:38:02;;;;;;;38.00;24.23;;;;;;;0.25;72.68;102331.72;5022287;28;20021;-73
2022/03/10 06:40:27;;;;;;;42.78;25.88;;;;;;;0.33;72.08;102332.91;5024162;28;20128;-74
2022/03/10 06:42:53;;;;;;;40.72;24.73;;;;;;;0.38;71.88;102331.53;5025654;28;20018;-75
2022/03/10 06:45:18;;;;;;;40.80;24.65;;;;;;;0.44;71.96;102338.28;5026436;28;20084;-75
2022/03/10 06:47:43;;;;;;;45.15;25.08;;;;;;;0.54;71.76;102339.22;5044802;28;20267;-74
2022/03/10 06:50:09;;;;;;;41.72;25.95;;;;;;;0.65;71.76;102339.16;5045587;28;20102;-74
2022/03/10 06:52:34;;;;;;;43.13;24.77;;;;;;;0.78;71.55;102336.31;5041221;28;20037;-74
2022/03/10 06:54:59;;;;;;;41.33;25.27;;;;;;;0.97;70.85;102347.28;5031252;28;20544;-74
2022/03/10 06:57:25;;;;;;;44.90;25.05;;;;;;;1.12;70.33;102344.25;5030819;28;20117;-75
2022/03/10 06:59:50;;;;;;;42.28;25.67;;;;;;;1.31;69.33;102349.75;5024395;28;20077;-74
2022/03/10 07:02:18;;;;;;;42.33;26.10;;;;;;;1.51;69.30;102343.44;5007741;28;20033;-74
2022/03/10 07:04:44;;;;;;;41.05;24.92;;;;;;;1.76;68.19;102347.56;5026358;28;20033;-74
2022/03/10 07:07:09;;;;;;;44.58;25.95;;;;;;;1.88;68.66;102345.63;5034797;28;20559;-75
2022/03/10 07:09:34;;;;;;;43.67;25.90;;;;;;;1.93;68.22;102350.63;5037952;28;20452;-73
2022/03/10 07:12:00;;;;;;;42.25;24.20;;;;;;;1.94;68.44;102345.06;5022186;28;20136;-74
2022/03/10 07:14:25;;;;;;;44.28;26.35;;;;;;;2.04;67.75;102354.09;5016987;28;20032;-74
2022/03/10 07:16:51;;;;;;;39.67;25.35;;;;;;;2.14;67.15;102348.69;5022385;28;20506;-74
2022/03/10 07:19:16;;;;;;;39.25;24.40;;;;;;;2.27;66.79;102351.13;5023745;28;20112;-74
2022/03/10 07:21:41;;;;;;;38.20;24.98;;;;;;;2.42;65.97;102343.47;5023521;28;20040;-73
2022/03/10 07:24:07;;;;;;;40.55;25.48;;;;;;;2.78;65.77;102345.47;5025463;28;20025;-74
2022/03/10 07:26:33;;;;;;;44.25;26.40;;;;;;;3.03;64.28;102337.75;5025450;28;20034;-74
2022/03/10 07:28:59;;;;;;;44.47;26.13;;;;;;;3.12;64.67;102340.47;5024979;28;20057;-74
2022/03/10 07:31:26;;;;;;;45.58;26.33;;;;;;;3.24;64.07;102343.00;5025091;28;20025;-74
2022/03/10 07:33:51;;;;;;;41.95;25.35;;;;;;;3.42;64.45;102341.25;5026209;28;20018;-74
2022/03/10 07:36:17;;;;;;;44.30;25.98;;;;;;;3.59;62.95;102337.75;5025549;28;20055;-74
2022/03/10 07:38:42;;;;;;;42.53;25.08;;;;;;;3.70;61.42;102336.75;5025938;28;20365;-74
2022/03/10 07:41:07;;;;;;;49.55;27.42;;;;;;;3.84;62.03;102336.22;5025653;28;20033;-74
2022/03/10 07:43:32;;;;;;;38.50;25.45;;;;;;;4.20;61.36;102338.19;5022556;28;20385;-73
2022/03/10 07:45:58;;;;;;;42.10;25.23;;;;;;;4.54;59.51;102338.41;5024098;28;20121;-73
2022/03/10 07:48:23;;;;;;;41.72;25.73;;;;;;;4.89;58.17;102332.09;5023147;28;20779;-73
2022/03/10 07:50:48;;;;;;;46.35;27.05;;;;;;;4.76;57.91;102331.63;5024348;28;20060;-74
2022/03/10 07:53:14;;;;;;;41.97;25.58;;;;;;;4.71;59.09;102329.38;5024779;28;20013;-73
2022/03/10 07:55:41;;;;;;;39.90;25.05;;;;;;;4.74;58.70;102336.38;5011350;28;20034;-73
2022/03/10 07:58:06;;;;;;;46.43;27.67;;;;;;;4.76;57.96;102323.47;5015935;28;20116;-72
2022/03/10 08:00:32;;;;;;;44.47;25.48;;;;;;;4.90;58.69;102339.25;5013602;28;20034;-72
2022/03/10 08:02:57;;;;;;;42.38;25.90;;;;;;;5.02;57.25;102332.56;5012174;28;20068;-73
2022/03/10 08:05:22;;;;;;;44.45;26.92;;;;;;;5.30;57.68;102336.00;5012389;28;20040;-73
2022/03/10 08:07:48;;;;;;;44.03;25.65;;;;;;;5.56;56.62;102335.97;5010227;28;20041;-73
2022/03/10 08:10:13;;;;;;;41.80;25.77;;;;;;;5.81;56.00;102334.25;5015472;28;20116;-71
2022/03/10 08:12:38;;;;;;;43.42;25.73;;;;;;;6.27;55.29;102328.50;5011595;28;20040;-67
2022/03/10 08:15:06;;;;;;;44.03;25.67;;;;;;;6.88;53.65;102329.94;5010540;28;20026;-73
2022/03/10 08:17:31;;;;;;;44.17;26.05;;;;;;;7.67;52.48;102333.81;5016046;28;20036;-74
2022/03/10 08:19:57;;;;;;;42.08;26.15;;;;;;;8.10;49.73;102337.06;5010279;28;20056;-74
2022/03/10 08:22:24;;;;;;;43.47;26.77;;;;;;;8.16;49.92;102334.47;5011130;28;20022;-74
2022/03/10 08:24:50;;;;;;;44.67;26.08;;;;;;;8.13;49.70;102340.28;5013536;28;20455;-74
2022/03/10 08:27:16;;;;;;;44.13;25.60;;;;;;;8.69;49.00;102330.06;5012584;28;20026;-74
2022/03/10 08:29:42;;;;;;;40.10;25.85;;;;;;;9.06;48.19;102334.75;5013153;28;20532;-73
2022/03/10 08:32:08;;;;;;;39.22;24.75;;;;;;;8.97;47.69;102329.50;5020877;28;20076;-73
2022/03/10 08:34:35;;;;;;;39.00;24.05;;;;;;;9.42;46.75;102320.34;5009710;28;20057;-73
2022/03/10 08:37:00;;;;;;;44.58;23.98;;;;;;;10.07;44.29;102325.09;5011421;28;20052;-72
2022/03/10 08:39:26;;;;;;;41.67;25.60;;;;;;;10.62;44.66;102320.09;5022308;28;20041;-72
2022/03/10 08:41:51;;;;;;;45.60;26.20;;;;;;;11.24;42.13;102316.63;5014893;28;20059;-72
2022/03/10 08:44:17;;;;;;;39.35;24.40;;;;;;;11.15;41.22;102309.56;5018520;28;20030;-72
2022/03/10 08:46:42;;;;;;;40.38;24.30;;;;;;;10.96;42.21;102311.13;5011323;28;20052;-73
2022/03/10 08:49:08;;;;;;;45.38;25.80;;;;;;;11.13;42.43;102312.53;5014538;28;20103;-73
2022/03/10 08:51:33;;;;;;;39.92;25.98;;;;;;;11.58;41.17;102315.84;5007163;28;20063;-73
2022/03/10 08:53:59;;;;;;;38.00;25.60;;;;;;;11.85;40.89;102308.63;5019194;28;20048;-72
2022/03/10 08:56:24;;;;;;;40.30;25.15;;;;;;;11.87;39.37;102312.03;5039328;28;20082;-67
2022/03/10 08:58:49;;;;;;;44.10;25.70;;;;;;;12.14;39.71;102310.25;5023981;28;20174;-69
2022/03/10 09:01:15;;;;;;;37.97;25.23;;;;;;;12.49;40.32;102315.69;5007301;28;20129;-74
2022/03/10 09:03:40;;;;;;;40.55;26.02;;;;;;;13.12;39.89;102305.16;5022142;28;20112;-70
2022/03/10 09:06:07;;;;;;;44.53;25.05;;;;;;;13.68;38.47;102307.47;5022971;28;20056;-73
2022/03/10 09:08:33;;;;;;;41.80;25.92;;;;;;;13.92;36.60;102302.31;5023585;28;20036;-71
2022/03/10 09:10:59;;;;;;;46.15;26.15;;;;;;;14.05;38.17;102298.66;5029429;28;20544;-70
2022/03/10 09:13:24;;;;;;;41.65;26.38;;;;;;;14.33;36.07;102296.38;5023048;28;20108;-71
2022/03/10 09:15:49;;;;;;;45.17;27.23;;;;;;;15.00;35.92;102292.19;5022518;28;20045;-71
2022/03/10 09:18:15;;;;;;;45.30;27.60;;;;;;;15.79;33.69;102295.28;5033254;28;20026;-71
2022/03/10 09:20:40;;;;;;;44.50;27.90;;;;;;;16.25;32.56;102286.41;5002722;28;20058;-71
2022/03/10 09:23:06;;;;;;;42.58;26.17;;;;;;;16.99;31.67;102287.06;5003906;28;20026;-72
2022/03/10 09:25:31;;;;;;;40.90;27.15;;;;;;;17.79;29.82;102280.94;5017687;28;20524;-69
2022/03/10 09:27:57;;;;;;;46.55;28.65;;;;;;;17.86;29.92;102283.59;5021606;28;20040;-69
2022/03/10 09:30:22;;;;;;;43.72;27.45;;;;;;;18.10;29.06;102284.38;5022392;28;20498;-69
2022/03/10 09:32:47;;;;;;;47.53;29.90;;;;;;;18.19;28.70;102280.09;5020430;28;20087;-69
2022/03/10 09:35:16;;;;;;;47.17;28.08;;;;;;;19.16;29.19;102280.00;5021226;28;20021;-69
2022/03/10 09:37:41;;;;;;;;;;;;;;;20.41;30.46;102279.50;5002801;28;20033;-69
2022/03/10 09:40:10;;;;;;;43.77;27.90;;;;;;;20.58;26.37;102274.72;5010925;28;19921;-69
2022/03/10 09:42:36;;;;;;;44.22;29.65;;;;;;;20.76;25.72;102269.84;5022776;28;20346;-68
2022/03/10 09:45:07;;;;;;;47.67;30.52;;;;;;;20.47;25.83;102264.53;5022384;28;20562;-69
2022/03/10 09:47:33;;;;;;;47.75;28.30;;;;;;;20.41;25.63;102259.97;5031667;28;20040;-68
2022/03/10 09:50:02;;;;;;;48.22;29.67;;;;;;;20.89;25.54;102255.47;5035803;28;20044;-69
2022/03/10 09:52:28;;;;;;;48.60;29.30;;;;;;;21.09;25.00;102252.00;5021608;28;20029;-68
2022/03/10 09:54:53;;;;;;;50.40;29.20;;;;;;;21.61;24.20;102259.66;5007219;28;20461;-68
2022/03/10 09:57:22;;;;;;;52.40;31.15;;;;;;;21.43;24.26;102252.53;5000630;28;20116;-68
2022/03/10 09:59:52;;;;;;;49.10;30.05;;;;;;;21.73;24.50;102257.47;5018963;28;20073;-68
2022/03/10 10:02:18;;;;;;;54.13;30.10;;;;;;;22.72;23.35;102256.44;5021775;28;20045;-67
2022/03/10 10:04:44;;;;;;;55.45;31.88;;;;;;;22.72;24.30;102250.84;5022164;28;20538;-68
2022/03/10 10:07:10;;;;;;;51.38;32.08;;;;;;;23.71;23.16;102240.13;5021678;28;20033;-67
2022/03/10 10:09:56;;;;;;;51.83;31.65;;;;;;;24.28;23.55;102255.59;5022022;28;20025;-67
2022/03/10 10:12:26;;;;;;;62.25;35.58;;;;;;;24.11;23.37;102243.88;5021194;28;20479;-68
2022/03/10 10:14:51;;;;;;;60.38;34.35;;;;;;;24.54;22.04;102249.88;5020194;28;20061;-68
2022/03/10 10:17:25;;;;;;;59.95;34.88;;;;;;;24.91;22.67;102245.66;5020980;28;20079;-67
2022/03/10 10:19:55;;;;;;;66.97;37.70;;;;;;;25.50;20.64;102242.59;5021917;28;20392;-69
2022/03/10 10:22:23;;;;;;;65.38;34.10;;;;;;;24.73;20.28;102242.41;5021285;28;20103;-68
2022/03/10 10:24:52;;;;;;;65.85;35.83;;;;;;;24.44;21.74;102247.97;5021957;28;20029;-69
2022/03/10 10:27:22;;;;;;;76.80;37.95;;;;;;;24.73;21.59;102245.22;5019731;28;20055;-68
2022/03/10 10:29:51;;;;;;;73.40;37.58;;;;;;;25.29;22.57;102239.16;5004587;28;20333;-67
2022/03/10 10:32:33;;;;;;;71.88;38.15;;;;;;;25.40;21.93;102231.44;5001330;28;20494;-67
2022/03/10 10:35:05;;;;;;;76.70;38.25;;;;;;;24.83;21.35;102227.44;5016266;28;20159;-67
2022/03/10 10:37:32;;;;;;;71.63;37.08;;;;;;;25.30;20.69;102223.13;5019642;28;20061;-67
2022/03/10 10:39:58;;;;;;;72.38;36.50;;;;;;;25.09;20.09;102225.25;5022278;28;20425;-67
2022/03/10 10:42:31;;;;;;;71.40;36.92;;;;;;;25.43;21.34;102225.22;5020588;28;20071;-67
2022/03/10 10:44:59;;;;;;;68.28;37.10;;;;;;;25.46;20.72;102219.00;5020438;28;20069;-67
2022/03/10 10:47:26;;;;;;;68.45;35.75;;;;;;;25.98;20.78;102213.63;5017596;28;20021;-67
2022/03/10 10:50:00;;;;;;;61.50;32.80;;;;;;;26.09;21.11;102221.63;5021449;28;20030;-67
2022/03/10 10:52:39;;;;;;;59.58;33.55;;;;;;;24.97;21.56;102220.00;5020262;28;20064;-67
2022/03/10 10:55:06;;;;;;;59.90;34.03;;;;;;;23.98;21.53;102222.09;5014992;28;20092;-68
2022/03/10 10:57:38;;;;;;;63.47;33.58;;;;;;;23.64;22.61;102221.94;5018945;28;20272;-67
2022/03/10 11:00:10;;;;;;;62.67;34.15;;;;;;;23.63;23.29;102218.28;5011259;28;20520;-67
2022/03/10 11:02:38;;;;;;;56.95;33.40;;;;;;;24.50;22.32;102217.88;5021000;28;20329;-68
2022/03/10 11:05:04;;;;;;;61.08;33.72;;;;;;;25.05;21.31;102205.31;5021164;28;20030;-67
2022/03/10 11:07:31;;;;;;;61.67;35.58;;;;;;;24.88;21.93;102206.88;5020758;28;20369;-67
2022/03/10 11:09:56;;;;;;;59.53;34.10;;;;;;;25.57;21.04;102203.69;5020823;28;20034;-67
2022/03/10 11:12:22;;;;;;;59.60;33.67;;;;;;;25.72;21.25;102208.28;5020593;28;20026;-67
2022/03/10 11:14:48;;;;;;;57.17;31.65;;;;;;;25.96;20.34;102199.84;5021313;28;20288;-67